Time;durP1;ratioP1;P1;durP2;ratioP2;P2;SDS_P1;SDS_P2;PMS_P1;PMS_P2;Temp;Humidity;BMP_temperature;BMP_pressure;BME280_temperature;BME280_humidity;BME280_pressure;Samples;Min_cycle;Max_cycle;Signal;HPM_P1;HPM_P2
2021/07/15 00:02:05;;;;;;;4.03;1.48;;;;;;;-142.37;100.00;59669.53;5036324;28;20056;-65
2021/07/15 00:04:31;;;;;;;2.70;1.60;;;;;;;-142.37;100.00;59669.53;5036582;28;20026;-66
2021/07/15 00:06:56;;;;;;;1.13;1.10;;;;;;;-142.37;100.00;59669.53;5036527;28;20460;-66
2021/07/15 00:09:22;;;;;;;2.78;1.73;;;;;;;-142.37;100.00;59669.53;5036695;28;20021;-66
2021/07/15 00:11:48;;;;;;;1.52;1.42;;;;;;;-142.37;100.00;59669.53;5036348;28;20030;-66
2021/07/15 00:14:17;;;;;;;2.50;1.55;;;;;;;-142.37;100.00;59669.53;5036643;28;20033;-66
2021/07/15 00:16:42;;;;;;;1.55;1.27;;;;;;;-142.37;100.00;59669.53;5036458;28;20037;-66
2021/07/15 00:19:10;;;;;;;1.50;1.23;;;;;;;-142.37;100.00;59669.53;5017497;28;20553;-65
2021/07/15 00:21:36;;;;;;;2.20;1.70;;;;;;;-142.37;100.00;59669.53;5016769;28;20049;-65
2021/07/15 00:24:03;;;;;;;2.50;1.67;;;;;;;-142.37;100.00;59669.53;5016272;28;20022;-65
2021/07/15 00:26:28;;;;;;;3.42;1.63;;;;;;;-142.37;100.00;59669.53;5016598;28;20056;-66
2021/07/15 00:28:53;;;;;;;3.75;1.65;;;;;;;-142.37;100.00;59669.53;5016366;28;20500;-66
2021/07/15 00:31:19;;;;;;;1.98;1.40;;;;;;;-142.37;100.00;59669.53;5016440;28;20461;-65
2021/07/15 00:33:45;;;;;;;2.13;1.42;;;;;;;-142.37;100.00;59669.53;5016459;28;20029;-65
2021/07/15 00:36:12;;;;;;;3.03;1.58;;;;;;;-142.37;100.00;59669.53;5016364;28;20484;-65
2021/07/15 00:38:37;;;;;;;2.08;1.88;;;;;;;-142.37;100.00;59669.53;5016210;28;20048;-66
2021/07/15 00:41:03;;;;;;;1.30;1.20;;;;;;;-142.37;100.00;59669.53;5022875;28;20092;-66
2021/07/15 00:43:28;;;;;;;1.40;1.30;;;;;;;-142.37;100.00;59669.53;5033267;28;20060;-66
2021/07/15 00:45:54;;;;;;;3.30;1.73;;;;;;;-142.37;100.00;59669.53;5016004;28;20737;-65
2021/07/15 00:48:19;;;;;;;2.20;1.60;;;;;;;-142.37;100.00;59669.53;5016151;28;20036;-66
2021/07/15 00:50:45;;;;;;;4.07;2.33;;;;;;;-142.37;100.00;59669.53;5016007;28;20060;-66
2021/07/15 00:53:10;;;;;;;2.58;1.90;;;;;;;-142.37;100.00;59669.53;5015896;28;20080;-65
2021/07/15 00:55:39;;;;;;;2.85;1.92;;;;;;;-142.37;100.00;59669.53;5015640;28;20072;-66
2021/07/15 00:58:06;;;;;;;1.45;1.25;;;;;;;-142.37;100.00;59669.53;5015739;28;20026;-65
2021/07/15 01:00:33;;;;;;;1.85;1.70;;;;;;;-142.37;100.00;59669.53;5015788;28;20029;-65
2021/07/15 01:02:58;;;;;;;1.90;1.67;;;;;;;-142.37;100.00;59669.53;5014702;28;20022;-65
2021/07/15 01:05:29;;;;;;;3.05;2.00;;;;;;;-142.37;100.00;59669.53;5015597;28;20049;-65
2021/07/15 01:07:55;;;;;;;2.72;1.95;;;;;;;-142.37;100.00;59669.53;5015641;28;20037;-66
2021/07/15 01:10:24;;;;;;;2.28;1.98;;;;;;;-142.37;100.00;59669.53;5015838;28;20034;-65
2021/07/15 01:13:01;;;;;;;3.08;2.05;;;;;;;-142.37;100.00;59669.53;5015618;28;20419;-65
2021/07/15 01:15:38;;;;;;;2.08;1.98;;;;;;;-142.37;100.00;59669.53;5015642;28;20022;-65
2021/07/15 01:18:06;;;;;;;1.63;1.50;;;;;;;-142.37;100.00;59669.53;5024694;28;20107;-65
2021/07/15 01:20:54;;;;;;;1.98;1.60;;;;;;;-142.37;100.00;59669.53;5035511;28;20022;-65
2021/07/15 01:23:32;;;;;;;2.65;1.90;;;;;;;-142.37;100.00;59669.53;5034837;28;20034;-65
2021/07/15 01:26:10;;;;;;;1.83;1.67;;;;;;;-142.37;100.00;59669.53;5034357;28;20029;-65
2021/07/15 01:28:59;;;;;;;2.60;1.50;;;;;;;-142.37;100.00;59669.53;5020231;28;20030;-65
2021/07/15 01:31:25;;;;;;;2.30;1.70;;;;;;;-142.37;100.00;59669.53;5015138;28;20053;-66
2021/07/15 01:33:51;;;;;;;2.00;1.80;;;;;;;-142.37;100.00;59669.53;5015338;28;20037;-66
2021/07/15 01:36:19;;;;;;;2.53;1.75;;;;;;;-142.37;100.00;59669.53;5014953;28;20064;-65
2021/07/15 01:38:58;;;;;;;2.22;1.70;;;;;;;-142.37;100.00;59669.53;5015295;28;20022;-65
2021/07/15 01:41:28;;;;;;;2.50;1.90;;;;;;;-142.37;100.00;59669.53;5015117;28;20477;-64
2021/07/15 01:44:01;;;;;;;2.17;1.77;;;;;;;-142.37;100.00;59669.53;5014867;28;20030;-65
2021/07/15 01:46:27;;;;;;;2.05;1.73;;;;;;;-142.37;100.00;59669.53;5015157;28;20050;-64
2021/07/15 01:48:52;;;;;;;2.65;1.98;;;;;;;-142.37;100.00;59669.53;5014631;28;20029;-65
2021/07/15 01:51:18;;;;;;;2.08;1.83;;;;;;;-142.37;100.00;59669.53;5018083;28;20049;-65
2021/07/15 01:53:44;;;;;;;1.98;1.80;;;;;;;-142.37;100.00;59669.53;5034888;28;20029;-65
2021/07/15 01:56:11;;;;;;;1.70;1.58;;;;;;;-142.37;100.00;59669.53;5034547;28;20145;-66
2021/07/15 01:58:38;;;;;;;2.28;1.65;;;;;;;-142.37;100.00;59669.53;5034373;28;20554;-65
2021/07/15 02:01:06;;;;;;;3.22;1.70;;;;;;;-142.37;100.00;59669.53;5019208;28;20030;-65
2021/07/15 02:03:32;;;;;;;2.92;1.95;;;;;;;-142.37;100.00;59669.53;5014481;28;20461;-65
2021/07/15 02:06:00;;;;;;;2.67;1.95;;;;;;;-142.37;100.00;59669.53;5014323;28;20041;-65
2021/07/15 02:08:26;;;;;;;1.38;1.27;;;;;;;-142.37;100.00;59669.53;5013285;28;20022;-66
2021/07/15 02:10:53;;;;;;;3.08;1.92;;;;;;;-142.37;100.00;59669.53;5014748;28;20025;-64
2021/07/15 02:13:19;;;;;;;2.17;1.88;;;;;;;-142.37;100.00;59669.53;5014364;28;20512;-65
2021/07/15 02:15:46;;;;;;;4.47;1.90;;;;;;;-142.37;100.00;59669.53;5014713;28;20061;-65
2021/07/15 02:18:14;;;;;;;1.33;1.20;;;;;;;-142.37;100.00;59669.53;5024857;28;20063;-65
2021/07/15 02:20:42;;;;;;;2.92;1.60;;;;;;;-142.37;100.00;59669.53;5034410;28;20099;-65
2021/07/15 02:23:08;;;;;;;2.95;1.70;;;;;;;-142.37;100.00;59669.53;5034077;28;20453;-66
2021/07/15 02:25:36;;;;;;;2.17;1.75;;;;;;;-142.37;100.00;59669.53;5033107;28;20108;-65
2021/07/15 02:28:03;;;;;;;2.85;1.67;;;;;;;-142.37;100.00;59669.53;5033884;28;20029;-64
2021/07/15 02:30:28;;;;;;;1.92;1.58;;;;;;;-142.37;100.00;59669.53;5034077;28;20048;-65
2021/07/15 02:32:58;;;;;;;2.20;1.50;;;;;;;-142.37;100.00;59669.53;5033935;28;20136;-65
2021/07/15 02:35:30;;;;;;;1.83;1.73;;;;;;;-142.37;100.00;59669.53;5033872;28;20029;-64
2021/07/15 02:37:57;;;;;;;2.00;1.67;;;;;;;-142.37;100.00;59669.53;5033547;28;20096;-65
2021/07/15 02:40:23;;;;;;;1.92;1.75;;;;;;;-142.37;100.00;59669.53;5033907;28;20025;-64
2021/07/15 02:42:49;;;;;;;2.38;2.00;;;;;;;-142.37;100.00;59669.53;5032669;28;20021;-64
2021/07/15 02:45:20;;;;;;;2.05;1.73;;;;;;;-142.37;100.00;59669.53;5032586;28;20064;-64
2021/07/15 02:47:47;;;;;;;2.30;1.85;;;;;;;-142.37;100.00;59669.53;5033508;28;20076;-64
2021/07/15 02:50:17;;;;;;;2.20;1.70;;;;;;;-142.37;100.00;59669.53;5033589;28;20025;-64
2021/07/15 02:52:43;;;;;;;1.73;1.48;;;;;;;-142.37;100.00;59669.53;5033616;28;20029;-65
2021/07/15 02:55:11;;;;;;;2.20;1.92;;;;;;;-142.37;100.00;59669.53;5033609;28;20523;-65
2021/07/15 02:57:43;;;;;;;2.70;2.22;;;;;;;-142.37;100.00;59669.53;5033413;28;20453;-65
2021/07/15 03:00:13;;;;;;;2.38;1.80;;;;;;;-142.37;100.00;59669.53;5033138;28;20400;-65
2021/07/15 03:02:54;;;;;;;2.08;1.73;;;;;;;-142.37;100.00;59669.53;5033285;28;20021;-65
2021/07/15 03:05:29;;;;;;;2.33;1.27;;;;;;;-142.37;100.00;59669.53;5033315;28;20064;-65
2021/07/15 03:08:04;;;;;;;1.70;1.60;;;;;;;-142.37;100.00;59669.53;5033321;28;20112;-65
2021/07/15 03:10:31;;;;;;;4.07;2.15;;;;;;;-142.37;100.00;59669.53;5033587;28;20029;-65
2021/07/15 03:12:57;;;;;;;2.75;1.80;;;;;;;-142.37;100.00;59669.53;5032990;28;20071;-64
2021/07/15 03:15:24;;;;;;;1.60;1.50;;;;;;;-142.37;100.00;59669.53;5033357;28;20021;-65
2021/07/15 03:17:50;;;;;;;1.48;1.38;;;;;;;-142.37;100.00;59669.53;5024726;28;20157;-65
2021/07/15 03:20:39;;;;;;;1.52;1.23;;;;;;;-142.37;100.00;59669.53;5012841;28;20029;-64
2021/07/15 03:23:09;;;;;;;2.25;1.17;;;;;;;-142.37;100.00;59669.53;5013548;28;20397;-66
2021/07/15 03:25:35;;;;;;;2.35;1.10;;;;;;;-142.37;100.00;59669.53;5013544;28;20026;-65
2021/07/15 03:28:04;;;;;;;1.48;1.00;;;;;;;-142.37;100.00;59669.53;5013249;28;20032;-65
2021/07/15 03:30:30;;;;;;;0.85;0.85;;;;;;;-142.37;100.00;59669.53;5013162;28;20072;-65
2021/07/15 03:32:56;;;;;;;1.70;1.00;;;;;;;-142.37;100.00;59669.53;5013270;28;20053;-64
2021/07/15 03:35:23;;;;;;;1.20;0.90;;;;;;;-142.37;100.00;59669.53;5013311;28;20053;-65
2021/07/15 03:37:50;;;;;;;1.85;0.70;;;;;;;-142.37;100.00;59669.53;5013500;28;20029;-65
2021/07/15 03:40:24;;;;;;;2.35;0.98;;;;;;;-142.37;100.00;59669.53;5013187;28;20383;-65
2021/07/15 03:42:50;;;;;;;1.23;0.68;;;;;;;-142.37;100.00;59669.53;5013411;28;20100;-64
2021/07/15 03:45:18;;;;;;;1.48;1.13;;;;;;;-142.37;100.00;59669.53;5013221;28;20441;-65
2021/07/15 03:47:49;;;;;;;0.70;0.70;;;;;;;-142.37;100.00;59669.53;5013020;28;20072;-65
2021/07/15 03:50:19;;;;;;;1.10;0.80;;;;;;;-142.37;100.00;59669.53;5013161;28;20025;-65
2021/07/15 03:52:48;;;;;;;2.42;0.95;;;;;;;-142.37;100.00;59669.53;5012921;28;20036;-65
2021/07/15 03:55:15;;;;;;;1.45;0.90;;;;;;;-142.37;100.00;59669.53;5012989;28;20030;-65
2021/07/15 03:57:43;;;;;;;2.50;0.80;;;;;;;-142.37;100.00;59669.53;5013326;28;20114;-65
2021/07/15 04:00:08;;;;;;;1.40;0.95;;;;;;;-142.37;100.00;59669.53;5012662;28;20077;-64
2021/07/15 04:02:37;;;;;;;0.90;0.65;;;;;;;-142.37;100.00;59669.53;5013032;28;20473;-65
2021/07/15 04:05:04;;;;;;;0.85;0.70;;;;;;;-142.37;100.00;59669.53;5013058;28;20022;-65
2021/07/15 04:07:30;;;;;;;1.30;0.88;;;;;;;-142.37;100.00;59669.53;5012138;28;20041;-64
2021/07/15 04:09:58;;;;;;;1.23;0.85;;;;;;;-142.37;100.00;59669.53;5012895;28;20034;-65
2021/07/15 04:12:25;;;;;;;1.13;0.68;;;;;;;-142.37;100.00;59669.53;5012988;28;20037;-64
2021/07/15 04:15:08;;;;;;;1.33;0.82;;;;;;;-142.37;100.00;59669.53;5012762;28;20057;-64
2021/07/15 04:17:38;;;;;;;0.98;0.70;;;;;;;-142.37;100.00;59669.53;5018682;28;20467;-65
2021/07/15 04:20:08;;;;;;;1.80;0.60;;;;;;;-142.37;100.00;59669.53;5021181;28;20026;-65
2021/07/15 04:22:36;;;;;;;0.77;0.52;;;;;;;-142.37;100.00;59669.53;5012919;28;20409;-65
2021/07/15 04:25:02;;;;;;;1.15;0.50;;;;;;;-142.37;100.00;59669.53;5012840;28;20045;-65
2021/07/15 04:27:28;;;;;;;1.13;0.63;;;;;;;-142.37;100.00;59669.53;5012668;28;20030;-66
2021/07/15 04:30:06;;;;;;;1.08;0.60;;;;;;;-142.37;100.00;59669.53;5014084;28;20030;-66
2021/07/15 04:32:54;;;;;;;0.73;0.73;;;;;;;-142.37;100.00;59669.53;5016284;28;20032;-65
2021/07/15 04:35:20;;;;;;;1.80;0.77;;;;;;;-142.37;100.00;59669.53;5016590;28;20396;-65
2021/07/15 04:37:47;;;;;;;1.52;0.60;;;;;;;-142.37;100.00;59669.53;5016607;28;20109;-65
2021/07/15 04:40:17;;;;;;;1.23;0.70;;;;;;;-142.37;100.00;59669.53;5015997;28;20021;-66
2021/07/15 04:42:44;;;;;;;1.73;0.70;;;;;;;-142.37;100.00;59669.53;5016588;28;20014;-65
2021/07/15 04:45:10;;;;;;;1.38;0.80;;;;;;;-142.37;100.00;59669.53;5015913;28;20080;-66
2021/07/15 04:47:38;;;;;;;1.45;0.70;;;;;;;-142.37;100.00;59669.53;5016269;28;20022;-66
2021/07/15 04:50:05;;;;;;;1.73;0.70;;;;;;;-142.37;100.00;59669.53;5016054;28;20552;-66
2021/07/15 04:52:34;;;;;;;0.65;0.50;;;;;;;-142.37;100.00;59669.53;5015859;28;20117;-65
2021/07/15 04:55:00;;;;;;;0.50;0.47;;;;;;;-142.37;100.00;59669.53;5016267;28;20104;-65
2021/07/15 04:57:25;;;;;;;1.15;0.70;;;;;;;-142.37;100.00;59669.53;5015886;28;20121;-64
2021/07/15 04:59:51;;;;;;;1.52;0.60;;;;;;;-142.37;100.00;59669.53;5030945;28;20096;-65
2021/07/15 05:02:17;;;;;;;2.00;0.60;;;;;;;-142.37;100.00;59669.53;5035505;28;20368;-66
2021/07/15 05:04:42;;;;;;;1.23;0.70;;;;;;;-142.37;100.00;59669.53;5035616;28;20018;-65
2021/07/15 05:07:07;;;;;;;2.13;0.75;;;;;;;-142.37;100.00;59669.53;5035413;28;20456;-65
2021/07/15 05:09:33;;;;;;;1.15;0.80;;;;;;;-142.37;100.00;59669.53;5035289;28;20055;-66
2021/07/15 05:11:58;;;;;;;1.05;0.57;;;;;;;-142.37;100.00;59669.53;5035593;28;20472;-66
2021/07/15 05:14:24;;;;;;;4.47;1.00;;;;;;;-142.37;100.00;59669.53;5035604;28;20029;-65
2021/07/15 05:16:49;;;;;;;1.20;0.60;;;;;;;-142.37;100.00;59669.53;5035401;28;20029;-65
2021/07/15 05:19:15;;;;;;;1.50;0.63;;;;;;;-142.37;100.00;59669.53;5015802;28;20033;-66
2021/07/15 05:21:40;;;;;;;1.88;0.60;;;;;;;-142.37;100.00;59669.53;5015751;28;20037;-65
2021/07/15 05:24:05;;;;;;;1.27;0.60;;;;;;;-142.37;100.00;59669.53;5015480;28;20024;-65
2021/07/15 05:26:31;;;;;;;1.70;0.65;;;;;;;-142.37;100.00;59669.53;5015503;28;20052;-65
2021/07/15 05:28:57;;;;;;;2.08;0.52;;;;;;;-142.37;100.00;59669.53;5015393;28;20024;-65
2021/07/15 05:31:23;;;;;;;2.28;0.90;;;;;;;-142.37;100.00;59669.53;5015249;28;20066;-65
2021/07/15 05:33:49;;;;;;;0.38;0.30;;;;;;;-142.37;100.00;59669.53;5015258;28;20026;-66
2021/07/15 05:36:14;;;;;;;1.27;0.63;;;;;;;-142.37;100.00;59669.53;5015179;28;20030;-66
2021/07/15 05:38:42;;;;;;;0.77;0.70;;;;;;;-142.37;100.00;59669.53;5015428;28;20025;-66
2021/07/15 05:41:08;;;;;;;1.88;0.77;;;;;;;-142.37;100.00;59669.53;5014306;28;20026;-66
2021/07/15 05:43:34;;;;;;;2.17;0.65;;;;;;;-142.37;100.00;59669.53;5015158;28;20568;-65
2021/07/15 05:45:59;;;;;;;1.05;0.70;;;;;;;-142.37;100.00;59669.53;5015028;28;20104;-65
2021/07/15 05:48:25;;;;;;;1.48;0.60;;;;;;;-142.37;100.00;59669.53;5014932;28;20636;-65
2021/07/15 05:50:50;;;;;;;2.25;0.80;;;;;;;-142.37;100.00;59669.53;5015197;28;20029;-65
2021/07/15 05:53:15;;;;;;;1.27;0.60;;;;;;;-142.37;100.00;59669.53;5014875;28;20030;-65
2021/07/15 05:55:41;;;;;;;0.88;0.70;;;;;;;-142.37;100.00;59669.53;5015031;28;20032;-65
2021/07/15 05:58:06;;;;;;;1.58;0.55;;;;;;;-142.37;100.00;59669.53;5014687;28;20021;-64
2021/07/15 06:00:31;;;;;;;0.77;0.73;;;;;;;-142.37;100.00;59669.53;5014884;28;20021;-65
2021/07/15 06:02:57;;;;;;;1.23;0.68;;;;;;;-142.37;100.00;59669.53;5014712;28;20034;-66
2021/07/15 06:05:22;;;;;;;2.35;0.70;;;;;;;-142.37;100.00;59669.53;5014831;28;20125;-66
2021/07/15 06:07:50;;;;;;;1.75;0.43;;;;;;;-142.37;100.00;59669.53;5014861;28;20464;-66
2021/07/15 06:10:16;;;;;;;2.22;0.60;;;;;;;-142.37;100.00;59669.53;5014767;28;20022;-66
2021/07/15 06:12:42;;;;;;;1.05;0.68;;;;;;;-142.37;100.00;59669.53;5014565;28;20113;-65
2021/07/15 06:15:08;;;;;;;1.73;0.50;;;;;;;-142.37;100.00;59669.53;5014705;28;20468;-65
2021/07/15 06:17:35;;;;;;;0.82;0.52;;;;;;;-142.37;100.00;59669.53;5019766;28;20031;-65
2021/07/15 06:20:00;;;;;;;2.08;0.70;;;;;;;-142.37;100.00;59669.53;5034430;28;20083;-66
2021/07/15 06:22:26;;;;;;;0.98;0.50;;;;;;;-142.37;100.00;59669.53;5033966;28;20471;-65
2021/07/15 06:24:51;;;;;;;1.77;0.75;;;;;;;-142.37;100.00;59669.53;5034471;28;20463;-65
2021/07/15 06:27:16;;;;;;;1.25;0.65;;;;;;;-142.37;100.00;59669.53;5034241;28;20044;-65
2021/07/15 06:29:42;;;;;;;1.30;0.50;;;;;;;-142.37;100.00;59669.53;5034287;28;20031;-65
2021/07/15 06:32:07;;;;;;;1.73;0.60;;;;;;;-142.37;100.00;59669.53;5037648;28;20502;-64
2021/07/15 06:34:33;;;;;;;1.13;0.47;;;;;;;-142.37;100.00;59669.53;5044693;28;20444;-64
2021/07/15 06:36:58;;;;;;;0.88;0.63;;;;;;;-142.37;100.00;59669.53;5032941;28;20049;-64
2021/07/15 06:39:24;;;;;;;1.40;0.52;;;;;;;-142.37;100.00;59669.53;5044337;28;20410;-65
2021/07/15 06:41:49;;;;;;;2.60;0.88;;;;;;;-142.37;100.00;59669.53;5026976;28;20025;-66
2021/07/15 06:44:15;;;;;;;1.95;0.50;;;;;;;-142.37;100.00;59669.53;5019405;28;20026;-66
2021/07/15 06:46:40;;;;;;;2.75;0.80;;;;;;;-142.37;100.00;59669.53;5034114;28;20033;-66
2021/07/15 06:49:06;;;;;;;1.27;0.70;;;;;;;-142.37;100.00;59669.53;5042082;28;20059;-65
2021/07/15 06:51:33;;;;;;;1.65;0.68;;;;;;;-142.37;100.00;59669.53;5048366;28;20036;-66
2021/07/15 06:53:58;;;;;;;0.90;0.50;;;;;;;-142.37;100.00;59669.53;5048362;28;20368;-65
2021/07/15 06:56:23;;;;;;;0.95;0.43;;;;;;;-142.37;100.00;59669.53;5053914;28;20063;-65
2021/07/15 06:58:49;;;;;;;2.40;0.60;;;;;;;-142.37;100.00;59669.53;5046356;28;20037;-66
2021/07/15 07:01:14;;;;;;;1.33;0.60;;;;;;;-142.37;100.00;59669.53;5042946;28;20085;-66
2021/07/15 07:03:40;;;;;;;1.30;0.63;;;;;;;-142.37;100.00;59669.53;5053609;28;20044;-65
2021/07/15 07:06:05;;;;;;;1.88;0.68;;;;;;;-142.37;100.00;59669.53;5043469;28;20037;-66
2021/07/15 07:08:31;;;;;;;1.08;0.73;;;;;;;-142.37;100.00;59669.53;5033798;28;20041;-66
2021/07/15 07:10:56;;;;;;;2.15;0.68;;;;;;;-142.37;100.00;59669.53;5033391;28;20384;-66
2021/07/15 07:13:22;;;;;;;2.38;1.00;;;;;;;-142.37;100.00;59669.53;5033549;28;20029;-66
2021/07/15 07:15:47;;;;;;;1.42;0.70;;;;;;;-142.37;100.00;59669.53;5032753;28;20037;-66
2021/07/15 07:18:13;;;;;;;2.53;0.80;;;;;;;-142.37;100.00;59669.53;5033572;28;20040;-66
2021/07/15 07:20:39;;;;;;;0.70;0.47;;;;;;;-142.37;100.00;59669.53;5033364;28;20360;-67
2021/07/15 07:23:05;;;;;;;1.27;0.65;;;;;;;-142.37;100.00;59669.53;5033269;28;20026;-66
2021/07/15 07:25:30;;;;;;;0.63;0.52;;;;;;;-142.37;100.00;59669.53;5026371;28;20029;-66
2021/07/15 07:27:56;;;;;;;1.63;0.50;;;;;;;-142.37;100.00;59669.53;5033483;28;20037;-66
2021/07/15 07:30:23;;;;;;;1.38;0.70;;;;;;;-142.37;100.00;59669.53;5036374;28;20100;-66
2021/07/15 07:32:49;;;;;;;1.15;0.65;;;;;;;-142.37;100.00;59669.53;5033077;28;20116;-66
2021/07/15 07:35:15;;;;;;;0.80;0.80;;;;;;;-142.37;100.00;59669.53;5030135;28;20113;-66
2021/07/15 07:37:42;;;;;;;2.33;0.75;;;;;;;-142.37;100.00;59669.53;5027937;28;20022;-66
2021/07/15 07:40:09;;;;;;;4.03;0.60;;;;;;;-142.37;100.00;59669.53;5022325;28;20067;-66
2021/07/15 07:42:34;;;;;;;2.25;0.80;;;;;;;-142.37;100.00;59669.53;5033143;28;20029;-67
2021/07/15 07:45:00;;;;;;;2.03;0.70;;;;;;;-142.37;100.00;59669.53;5036427;28;20025;-66
2021/07/15 07:47:26;;;;;;;2.83;1.00;;;;;;;-142.37;100.00;59669.53;5032929;28;20037;-66
2021/07/15 07:49:51;;;;;;;1.15;0.60;;;;;;;-142.37;100.00;59669.53;5033055;28;20384;-66
2021/07/15 07:52:17;;;;;;;1.88;0.90;;;;;;;-142.37;100.00;59669.53;5032665;28;20048;-66
2021/07/15 07:54:42;;;;;;;1.02;0.60;;;;;;;-142.37;100.00;59669.53;5033121;28;20372;-66
2021/07/15 07:57:10;;;;;;;1.42;0.93;;;;;;;-142.37;100.00;59669.53;5032723;28;20029;-66
2021/07/15 07:59:35;;;;;;;1.15;0.60;;;;;;;-142.37;100.00;59669.53;5032606;28;20048;-66
2021/07/15 08:02:01;;;;;;;1.83;0.75;;;;;;;-142.37;100.00;59669.53;5031559;28;20025;-66
2021/07/15 08:04:27;;;;;;;2.22;0.65;;;;;;;-142.37;100.00;59669.53;5033249;28;20021;-66
2021/07/15 08:06:52;;;;;;;1.48;0.65;;;;;;;-142.37;100.00;59669.53;5040194;28;20065;-66
2021/07/15 08:09:23;;;;;;;0.95;0.70;;;;;;;-142.37;100.00;59669.53;5038480;28;20041;-66
2021/07/15 08:11:50;;;;;;;1.67;0.73;;;;;;;-142.37;100.00;59669.53;5037031;28;20029;-66
2021/07/15 08:14:16;;;;;;;1.42;0.60;;;;;;;-142.37;100.00;59669.53;5036315;28;20029;-66
2021/07/15 08:16:41;;;;;;;0.70;0.50;;;;;;;-142.37;100.00;59669.53;5036586;28;20491;-66
2021/07/15 08:19:07;;;;;;;0.80;0.60;;;;;;;-142.37;100.00;59669.53;5037477;28;20103;-66
2021/07/15 08:21:32;;;;;;;0.57;0.43;;;;;;;-142.37;100.00;59669.53;5044095;28;20030;-66
2021/07/15 08:23:58;;;;;;;2.03;0.70;;;;;;;-142.37;100.00;59669.53;5036899;28;20101;-66
2021/07/15 08:26:23;;;;;;;1.58;0.70;;;;;;;-142.37;100.00;59669.53;5036462;28;20040;-66
2021/07/15 08:28:49;;;;;;;1.30;0.90;;;;;;;-142.37;100.00;59669.53;5037426;28;20048;-66
2021/07/15 08:31:15;;;;;;;1.60;0.70;;;;;;;-142.37;100.00;59669.53;5051989;28;20513;-66
2021/07/15 08:33:41;;;;;;;1.75;0.80;;;;;;;-142.37;100.00;59669.53;5036869;28;20032;-66
2021/07/15 08:36:06;;;;;;;1.25;0.60;;;;;;;-142.37;100.00;59669.53;5035577;28;20447;-66
2021/07/15 08:38:31;;;;;;;1.40;0.63;;;;;;;-142.37;100.00;59669.53;5036078;28;20071;-66
2021/07/15 08:40:57;;;;;;;0.88;0.70;;;;;;;-142.37;100.00;59669.53;5036043;28;20352;-65
2021/07/15 08:43:23;;;;;;;1.77;0.80;;;;;;;-142.37;100.00;59669.53;5030167;28;20113;-65
2021/07/15 08:45:50;;;;;;;0.98;0.50;;;;;;;-142.37;100.00;59669.53;5035348;28;20096;-66
2021/07/15 08:48:16;;;;;;;1.58;0.80;;;;;;;-142.37;100.00;59669.53;5032944;28;20025;-66
2021/07/15 08:50:41;;;;;;;1.52;0.60;;;;;;;-142.37;100.00;59669.53;5035728;28;20055;-66
2021/07/15 08:53:07;;;;;;;0.57;0.57;;;;;;;-142.37;100.00;59669.53;5032327;28;20063;-66
2021/07/15 08:58:13;;;;;;;1.25;0.70;;;;;;;-142.37;100.00;59669.53;5030745;28;20107;-66
2021/07/15 09:00:39;;;;;;;1.27;0.70;;;;;;;-142.37;100.00;59669.53;5038835;28;20026;-66
2021/07/15 09:03:05;;;;;;;1.05;0.82;;;;;;;-142.37;100.00;59669.53;5035104;28;20108;-66
2021/07/15 09:05:30;;;;;;;1.70;0.75;;;;;;;-142.37;100.00;59669.53;5039191;28;20060;-66
2021/07/15 09:07:55;;;;;;;1.13;0.77;;;;;;;-142.37;100.00;59669.53;5042058;28;20079;-65
2021/07/15 09:10:21;;;;;;;1.13;0.60;;;;;;;-142.37;100.00;59669.53;5040073;28;20044;-63
2021/07/15 09:12:46;;;;;;;2.35;0.80;;;;;;;-142.37;100.00;59669.53;5032583;28;20123;-63
2021/07/15 09:15:12;;;;;;;1.20;0.70;;;;;;;-142.37;100.00;59669.53;5034056;28;20017;-62
2021/07/15 09:17:38;;;;;;;1.88;0.85;;;;;;;-142.37;100.00;59669.53;5032029;28;20376;-63
2021/07/15 09:20:09;;;;;;;1.20;0.70;;;;;;;-142.37;100.00;59669.53;5035016;28;20024;-63
2021/07/15 09:22:55;;;;;;;1.92;0.70;;;;;;;-142.37;100.00;59669.53;5034909;28;20025;-63
2021/07/15 09:25:20;;;;;;;1.40;0.77;;;;;;;-142.37;100.00;59669.53;5033959;28;20026;-63
2021/07/15 09:27:49;;;;;;;1.45;0.60;;;;;;;-142.37;100.00;59669.53;5037672;28;20029;-64
2021/07/15 09:30:17;;;;;;;1.80;0.85;;;;;;;-142.37;100.00;59669.53;5035655;28;20109;-63
2021/07/15 09:33:00;;;;;;;1.02;0.57;;;;;;;-142.37;100.00;59669.53;5035624;28;20029;-63
2021/07/15 09:35:47;;;;;;;1.08;0.50;;;;;;;-142.37;100.00;59669.53;5044075;28;20025;-64
2021/07/15 09:38:21;;;;;;;3.15;0.60;;;;;;;-142.37;100.00;59669.53;5043768;28;20085;-63
2021/07/15 09:40:49;;;;;;;1.27;0.73;;;;;;;-142.37;100.00;59669.53;5035283;28;20025;-63
2021/07/15 09:43:25;;;;;;;0.98;0.60;;;;;;;-142.37;100.00;59669.53;5034791;28;20060;-65
2021/07/15 09:45:53;;;;;;;1.63;0.55;;;;;;;-142.37;100.00;59669.53;5034869;28;20125;-65
2021/07/15 09:48:23;;;;;;;1.05;0.65;;;;;;;-142.37;100.00;59669.53;5034834;28;20021;-66
2021/07/15 09:50:50;;;;;;;2.47;0.57;;;;;;;-142.37;100.00;59669.53;5034456;28;20514;-65
2021/07/15 09:53:20;;;;;;;1.70;0.60;;;;;;;-142.37;100.00;59669.53;5034929;28;20033;-65
2021/07/15 09:55:47;;;;;;;1.05;0.60;;;;;;;-142.37;100.00;59669.53;5034886;28;20544;-66
2021/07/15 09:58:14;;;;;;;1.17;0.50;;;;;;;-142.37;100.00;59669.53;5034675;28;20448;-65
2021/07/15 10:00:41;;;;;;;1.85;0.68;;;;;;;-142.37;100.00;59669.53;5034507;28;20029;-60
2021/07/15 10:03:09;;;;;;;0.55;0.55;;;;;;;-142.37;100.00;59669.53;5039372;28;20033;-60
2021/07/15 10:05:38;;;;;;;0.93;0.30;;;;;;;-142.37;100.00;59669.53;5034909;28;20068;-58
2021/07/15 10:08:09;;;;;;;0.55;0.50;;;;;;;-142.37;100.00;59669.53;5033444;28;20048;-58
2021/07/15 10:10:36;;;;;;;1.60;0.90;;;;;;;-142.37;100.00;59669.53;5033848;28;20108;-58
2021/07/15 10:13:21;;;;;;;1.83;0.82;;;;;;;-142.37;100.00;59669.53;5033502;28;20029;-58
2021/07/15 10:15:48;;;;;;;1.10;0.75;;;;;;;-142.37;100.00;59669.53;5032774;28;20164;-58
2021/07/15 10:18:14;;;;;;;1.45;0.75;;;;;;;-142.37;100.00;59669.53;5033917;28;20780;-58
2021/07/15 10:20:54;;;;;;;1.13;0.50;;;;;;;-142.37;100.00;59669.53;5034190;28;20060;-58
2021/07/15 10:23:38;;;;;;;1.45;0.50;;;;;;;-142.37;100.00;59669.53;5033931;28;20025;-58
2021/07/15 10:26:05;;;;;;;1.42;0.63;;;;;;;-142.37;100.00;59669.53;5032084;28;20056;-57
2021/07/15 10:28:30;;;;;;;1.15;0.70;;;;;;;-142.37;100.00;59669.53;5033893;28;20399;-58
2021/07/15 10:31:02;;;;;;;1.02;0.75;;;;;;;-142.37;100.00;59669.53;5033176;28;20029;-57
2021/07/15 10:33:29;;;;;;;1.17;0.98;;;;;;;-142.37;100.00;59669.53;5033911;28;20092;-58
2021/07/15 10:35:57;;;;;;;1.48;0.95;;;;;;;-142.37;100.00;59669.53;5033364;28;20112;-57
2021/07/15 10:38:27;;;;;;;1.27;0.70;;;;;;;-142.37;100.00;59669.53;5033711;28;20252;-58
2021/07/15 10:40:53;;;;;;;0.70;0.70;;;;;;;-142.37;100.00;59669.53;5033482;28;20516;-57
2021/07/15 10:43:19;;;;;;;1.70;0.80;;;;;;;-142.37;100.00;59669.53;5033553;28;20028;-57
2021/07/15 10:45:46;;;;;;;1.05;0.65;;;;;;;-142.37;100.00;59669.53;5033025;28;20025;-57
2021/07/15 10:48:13;;;;;;;0.85;0.77;;;;;;;-142.37;100.00;59669.53;5033395;28;20494;-60
2021/07/15 10:50:40;;;;;;;0.57;0.57;;;;;;;-142.37;100.00;59669.53;5033580;28;20031;-60
2021/07/15 10:53:06;;;;;;;0.88;0.70;;;;;;;-142.37;100.00;59669.53;5033620;28;20052;-60
2021/07/15 10:55:32;;;;;;;1.52;0.95;;;;;;;-142.37;100.00;59669.53;5033515;28;20091;-59
2021/07/15 10:57:58;;;;;;;1.23;0.60;;;;;;;-142.37;100.00;59669.53;5033007;28;20400;-58
2021/07/15 11:00:25;;;;;;;1.27;0.70;;;;;;;-142.37;100.00;59669.53;5032287;28;20045;-58
2021/07/15 11:03:25;;;;;;;0.80;0.50;;;;;;;-142.37;100.00;59669.53;5035765;28;20022;-58
2021/07/15 11:05:54;;;;;;;5.57;1.33;;;;;;;-142.37;100.00;59669.53;4954349;28;20152;-61
2021/07/15 11:08:39;;;;;;;4.15;0.60;;;;;;;-142.37;100.00;59669.53;4960936;28;20107;-60
2021/07/15 11:11:05;;;;;;;0.90;0.50;;;;;;;-142.37;100.00;59669.53;4953979;28;20039;-62
2021/07/15 11:13:33;;;;;;;1.58;0.90;;;;;;;-142.37;100.00;59669.53;4957135;28;20050;-61
2021/07/15 11:15:58;;;;;;;2.30;0.70;;;;;;;-142.37;100.00;59669.53;4956980;28;20042;-62